sensor_id;sensor_type;location;lat;lon;timestamp;P1;durP1;ratioP1;P2;durP2;ratioP2
13034;SDS011;6584;48.022;11.810;2023-02-11T00:01:30;9.65;;;6.95;;
13034;SDS011;6584;48.022;11.810;2023-02-11T00:03:57;11.80;;;7.72;;
13034;SDS011;6584;48.022;11.810;2023-02-11T00:06:25;10.43;;;7.00;;
13034;SDS011;6584;48.022;11.810;2023-02-11T00:08:52;11.13;;;7.03;;
13034;SDS011;6584;48.022;11.810;2023-02-11T00:11:18;10.02;;;6.95;;
13034;SDS011;6584;48.022;11.810;2023-02-11T00:13:44;10.48;;;7.00;;
13034;SDS011;6584;48.022;11.810;2023-02-11T00:16:12;8.52;;;6.10;;
13034;SDS011;6584;48.022;11.810;2023-02-11T00:18:40;9.25;;;6.50;;
13034;SDS011;6584;48.022;11.810;2023-02-11T00:21:06;8.23;;;6.38;;
13034;SDS011;6584;48.022;11.810;2023-02-11T00:23:33;9.10;;;6.32;;
13034;SDS011;6584;48.022;11.810;2023-02-11T00:25:59;11.15;;;6.20;;
13034;SDS011;6584;48.022;11.810;2023-02-11T00:28:25;9.18;;;6.88;;
13034;SDS011;6584;48.022;11.810;2023-02-11T00:30:54;9.43;;;6.72;;
13034;SDS011;6584;48.022;11.810;2023-02-11T00:33:20;9.95;;;6.50;;
13034;SDS011;6584;48.022;11.810;2023-02-11T00:35:46;11.73;;;7.45;;
13034;SDS011;6584;48.022;11.810;2023-02-11T00:38:11;10.90;;;7.38;;
13034;SDS011;6584;48.022;11.810;2023-02-11T00:40:37;9.45;;;7.03;;
13034;SDS011;6584;48.022;11.810;2023-02-11T00:43:02;10.68;;;7.05;;
13034;SDS011;6584;48.022;11.810;2023-02-11T00:45:28;9.70;;;5.90;;
13034;SDS011;6584;48.022;11.810;2023-02-11T00:47:54;10.93;;;6.72;;
13034;SDS011;6584;48.022;11.810;2023-02-11T00:50:20;8.55;;;6.43;;
13034;SDS011;6584;48.022;11.810;2023-02-11T00:52:46;8.90;;;6.40;;
13034;SDS011;6584;48.022;11.810;2023-02-11T00:55:11;9.25;;;6.63;;
13034;SDS011;6584;48.022;11.810;2023-02-11T00:57:37;9.35;;;5.75;;
13034;SDS011;6584;48.022;11.810;2023-02-11T01:00:05;7.97;;;5.35;;
13034;SDS011;6584;48.022;11.810;2023-02-11T01:02:31;11.88;;;6.13;;
13034;SDS011;6584;48.022;11.810;2023-02-11T01:04:57;8.23;;;5.35;;
13034;SDS011;6584;48.022;11.810;2023-02-11T01:07:24;8.13;;;5.22;;
13034;SDS011;6584;48.022;11.810;2023-02-11T01:09:50;7.82;;;4.85;;
13034;SDS011;6584;48.022;11.810;2023-02-11T01:12:16;6.90;;;5.10;;
13034;SDS011;6584;48.022;11.810;2023-02-11T01:14:42;10.65;;;5.05;;
13034;SDS011;6584;48.022;11.810;2023-02-11T01:17:07;7.15;;;5.18;;
13034;SDS011;6584;48.022;11.810;2023-02-11T01:19:33;7.22;;;4.75;;
13034;SDS011;6584;48.022;11.810;2023-02-11T01:22:01;6.22;;;4.50;;
13034;SDS011;6584;48.022;11.810;2023-02-11T01:24:26;6.22;;;4.72;;
13034;SDS011;6584;48.022;11.810;2023-02-11T01:26:52;6.50;;;4.90;;
13034;SDS011;6584;48.022;11.810;2023-02-11T01:29:17;6.20;;;4.65;;
13034;SDS011;6584;48.022;11.810;2023-02-11T01:31:43;6.53;;;4.63;;
13034;SDS011;6584;48.022;11.810;2023-02-11T01:34:08;7.68;;;4.72;;
13034;SDS011;6584;48.022;11.810;2023-02-11T01:36:34;5.95;;;4.35;;
13034;SDS011;6584;48.022;11.810;2023-02-11T01:38:59;6.47;;;4.80;;
13034;SDS011;6584;48.022;11.810;2023-02-11T01:41:25;6.45;;;4.28;;
13034;SDS011;6584;48.022;11.810;2023-02-11T01:43:50;5.97;;;4.95;;
13034;SDS011;6584;48.022;11.810;2023-02-11T01:48:54;6.60;;;4.57;;
13034;SDS011;6584;48.022;11.810;2023-02-11T01:52:09;7.35;;;4.45;;
13034;SDS011;6584;48.022;11.810;2023-02-11T01:54:43;6.32;;;4.47;;
13034;SDS011;6584;48.022;11.810;2023-02-11T01:57:37;5.72;;;4.43;;
13034;SDS011;6584;48.022;11.810;2023-02-11T02:00:08;7.40;;;4.57;;
13034;SDS011;6584;48.022;11.810;2023-02-11T02:02:39;9.38;;;4.72;;
13034;SDS011;6584;48.022;11.810;2023-02-11T02:05:21;6.45;;;4.72;;
13034;SDS011;6584;48.022;11.810;2023-02-11T02:10:41;6.75;;;5.18;;
13034;SDS011;6584;48.022;11.810;2023-02-11T02:13:09;6.35;;;5.05;;
13034;SDS011;6584;48.022;11.810;2023-02-11T02:15:36;7.07;;;5.50;;
13034;SDS011;6584;48.022;11.810;2023-02-11T02:21:20;8.48;;;4.97;;
13034;SDS011;6584;48.022;11.810;2023-02-11T02:27:09;7.45;;;5.07;;
13034;SDS011;6584;48.022;11.810;2023-02-11T02:41:05;6.80;;;4.57;;
13034;SDS011;6584;48.022;11.810;2023-02-11T02:43:34;8.02;;;4.82;;
13034;SDS011;6584;48.022;11.810;2023-02-11T02:46:35;7.18;;;4.50;;
13034;SDS011;6584;48.022;11.810;2023-02-11T02:48:57;7.50;;;4.53;;
13034;SDS011;6584;48.022;11.810;2023-02-11T03:03:16;6.55;;;4.07;;
13034;SDS011;6584;48.022;11.810;2023-02-11T03:05:57;6.97;;;4.45;;
13034;SDS011;6584;48.022;11.810;2023-02-11T03:11:22;6.40;;;3.83;;
13034;SDS011;6584;48.022;11.810;2023-02-11T03:13:49;6.53;;;4.60;;
13034;SDS011;6584;48.022;11.810;2023-02-11T03:16:18;5.30;;;3.90;;
13034;SDS011;6584;48.022;11.810;2023-02-11T03:18:50;4.55;;;3.85;;
13034;SDS011;6584;48.022;11.810;2023-02-11T03:21:20;4.88;;;3.72;;
13034;SDS011;6584;48.022;11.810;2023-02-11T03:26:22;5.35;;;3.80;;
13034;SDS011;6584;48.022;11.810;2023-02-11T03:34:28;5.22;;;3.50;;
13034;SDS011;6584;48.022;11.810;2023-02-11T03:37:04;6.07;;;4.03;;
13034;SDS011;6584;48.022;11.810;2023-02-11T03:39:43;8.18;;;4.40;;
13034;SDS011;6584;48.022;11.810;2023-02-11T03:42:14;7.40;;;4.63;;
13034;SDS011;6584;48.022;11.810;2023-02-11T03:44:48;5.35;;;3.92;;
13034;SDS011;6584;48.022;11.810;2023-02-11T03:47:20;5.72;;;3.85;;
13034;SDS011;6584;48.022;11.810;2023-02-11T03:49:49;4.90;;;4.05;;
13034;SDS011;6584;48.022;11.810;2023-02-11T03:52:17;6.13;;;4.32;;
13034;SDS011;6584;48.022;11.810;2023-02-11T03:54:44;6.65;;;4.40;;
13034;SDS011;6584;48.022;11.810;2023-02-11T03:57:12;5.47;;;4.10;;
13034;SDS011;6584;48.022;11.810;2023-02-11T03:59:57;5.65;;;4.13;;
13034;SDS011;6584;48.022;11.810;2023-02-11T04:02:27;5.53;;;4.03;;
13034;SDS011;6584;48.022;11.810;2023-02-11T04:04:55;5.75;;;3.78;;
13034;SDS011;6584;48.022;11.810;2023-02-11T04:07:21;4.70;;;3.70;;
13034;SDS011;6584;48.022;11.810;2023-02-11T04:09:47;5.63;;;4.15;;
13034;SDS011;6584;48.022;11.810;2023-02-11T04:12:13;5.57;;;4.03;;
13034;SDS011;6584;48.022;11.810;2023-02-11T04:14:38;6.00;;;3.70;;
13034;SDS011;6584;48.022;11.810;2023-02-11T04:17:04;8.25;;;7.07;;
13034;SDS011;6584;48.022;11.810;2023-02-11T04:19:30;8.73;;;6.95;;
13034;SDS011;6584;48.022;11.810;2023-02-11T04:21:55;8.93;;;6.70;;
13034;SDS011;6584;48.022;11.810;2023-02-11T04:24:21;7.65;;;5.65;;
13034;SDS011;6584;48.022;11.810;2023-02-11T04:26:47;8.77;;;5.25;;
13034;SDS011;6584;48.022;11.810;2023-02-11T04:29:12;6.70;;;5.10;;
13034;SDS011;6584;48.022;11.810;2023-02-11T04:31:38;7.18;;;5.35;;
13034;SDS011;6584;48.022;11.810;2023-02-11T04:34:03;14.05;;;7.32;;
13034;SDS011;6584;48.022;11.810;2023-02-11T04:36:29;22.65;;;10.90;;
13034;SDS011;6584;48.022;11.810;2023-02-11T04:38:54;11.80;;;5.90;;
13034;SDS011;6584;48.022;11.810;2023-02-11T04:41:20;9.15;;;5.07;;
13034;SDS011;6584;48.022;11.810;2023-02-11T04:43:46;6.20;;;4.03;;
13034;SDS011;6584;48.022;11.810;2023-02-11T04:46:11;6.03;;;3.70;;
13034;SDS011;6584;48.022;11.810;2023-02-11T04:48:37;4.28;;;3.22;;
13034;SDS011;6584;48.022;11.810;2023-02-11T04:51:02;4.72;;;3.40;;
13034;SDS011;6584;48.022;11.810;2023-02-11T04:53:28;5.55;;;3.90;;
13034;SDS011;6584;48.022;11.810;2023-02-11T04:55:53;5.20;;;3.63;;
13034;SDS011;6584;48.022;11.810;2023-02-11T04:58:19;5.30;;;3.70;;
13034;SDS011;6584;48.022;11.810;2023-02-11T05:00:45;5.32;;;3.25;;
13034;SDS011;6584;48.022;11.810;2023-02-11T05:03:11;4.43;;;3.35;;
13034;SDS011;6584;48.022;11.810;2023-02-11T05:05:37;5.55;;;3.30;;
13034;SDS011;6584;48.022;11.810;2023-02-11T05:08:04;4.63;;;2.92;;
13034;SDS011;6584;48.022;11.810;2023-02-11T05:10:31;4.88;;;3.10;;
13034;SDS011;6584;48.022;11.810;2023-02-11T05:12:57;6.65;;;3.28;;
13034;SDS011;6584;48.022;11.810;2023-02-11T05:15:22;4.93;;;3.15;;
13034;SDS011;6584;48.022;11.810;2023-02-11T05:17:48;6.25;;;3.45;;
13034;SDS011;6584;48.022;11.810;2023-02-11T05:20:13;3.95;;;3.10;;
13034;SDS011;6584;48.022;11.810;2023-02-11T05:22:39;4.50;;;3.35;;
13034;SDS011;6584;48.022;11.810;2023-02-11T05:25:05;8.43;;;4.43;;
13034;SDS011;6584;48.022;11.810;2023-02-11T05:27:30;10.55;;;5.68;;
13034;SDS011;6584;48.022;11.810;2023-02-11T05:29:56;7.75;;;4.90;;
13034;SDS011;6584;48.022;11.810;2023-02-11T05:32:21;8.13;;;4.13;;
13034;SDS011;6584;48.022;11.810;2023-02-11T05:34:47;8.00;;;4.85;;
13034;SDS011;6584;48.022;11.810;2023-02-11T05:37:13;7.05;;;4.30;;
13034;SDS011;6584;48.022;11.810;2023-02-11T05:39:38;5.28;;;3.85;;
13034;SDS011;6584;48.022;11.810;2023-02-11T05:42:04;5.05;;;3.22;;
13034;SDS011;6584;48.022;11.810;2023-02-11T05:44:30;5.00;;;3.35;;
13034;SDS011;6584;48.022;11.810;2023-02-11T05:46:55;4.88;;;3.30;;
13034;SDS011;6584;48.022;11.810;2023-02-11T05:49:21;4.35;;;3.20;;
13034;SDS011;6584;48.022;11.810;2023-02-11T05:51:46;5.13;;;3.20;;
13034;SDS011;6584;48.022;11.810;2023-02-11T05:54:12;3.90;;;2.88;;
13034;SDS011;6584;48.022;11.810;2023-02-11T05:56:37;3.70;;;3.00;;
13034;SDS011;6584;48.022;11.810;2023-02-11T05:59:03;3.72;;;2.85;;
13034;SDS011;6584;48.022;11.810;2023-02-11T06:01:29;4.05;;;2.70;;
13034;SDS011;6584;48.022;11.810;2023-02-11T06:03:54;3.97;;;3.08;;
13034;SDS011;6584;48.022;11.810;2023-02-11T06:06:20;3.83;;;2.90;;
13034;SDS011;6584;48.022;11.810;2023-02-11T06:08:45;4.40;;;2.70;;
13034;SDS011;6584;48.022;11.810;2023-02-11T06:11:13;4.47;;;2.85;;
13034;SDS011;6584;48.022;11.810;2023-02-11T06:13:39;3.60;;;2.67;;
13034;SDS011;6584;48.022;11.810;2023-02-11T06:16:05;3.30;;;2.67;;
13034;SDS011;6584;48.022;11.810;2023-02-11T06:18:31;4.57;;;3.28;;
13034;SDS011;6584;48.022;11.810;2023-02-11T06:20:57;4.50;;;3.17;;
13034;SDS011;6584;48.022;11.810;2023-02-11T06:23:23;6.00;;;3.00;;
13034;SDS011;6584;48.022;11.810;2023-02-11T06:25:49;4.05;;;3.10;;
13034;SDS011;6584;48.022;11.810;2023-02-11T06:28:15;5.10;;;3.38;;
13034;SDS011;6584;48.022;11.810;2023-02-11T06:30:41;5.75;;;2.90;;
13034;SDS011;6584;48.022;11.810;2023-02-11T06:33:06;6.22;;;3.22;;
13034;SDS011;6584;48.022;11.810;2023-02-11T06:35:32;4.13;;;3.00;;
13034;SDS011;6584;48.022;11.810;2023-02-11T06:37:59;5.43;;;3.60;;
13034;SDS011;6584;48.022;11.810;2023-02-11T06:40:25;4.07;;;3.20;;
13034;SDS011;6584;48.022;11.810;2023-02-11T06:42:51;5.47;;;3.80;;
13034;SDS011;6584;48.022;11.810;2023-02-11T06:45:16;4.53;;;3.20;;
13034;SDS011;6584;48.022;11.810;2023-02-11T06:47:42;4.07;;;3.40;;
13034;SDS011;6584;48.022;11.810;2023-02-11T06:50:09;5.20;;;3.35;;
13034;SDS011;6584;48.022;11.810;2023-02-11T06:52:36;6.00;;;4.10;;
13034;SDS011;6584;48.022;11.810;2023-02-11T06:55:02;5.15;;;3.65;;
13034;SDS011;6584;48.022;11.810;2023-02-11T06:57:28;5.57;;;3.90;;
13034;SDS011;6584;48.022;11.810;2023-02-11T06:59:54;6.53;;;4.10;;
13034;SDS011;6584;48.022;11.810;2023-02-11T07:02:20;5.55;;;3.60;;
13034;SDS011;6584;48.022;11.810;2023-02-11T07:04:45;7.25;;;5.18;;
13034;SDS011;6584;48.022;11.810;2023-02-11T07:07:11;6.97;;;5.22;;
13034;SDS011;6584;48.022;11.810;2023-02-11T07:09:36;6.97;;;4.95;;
13034;SDS011;6584;48.022;11.810;2023-02-11T07:12:02;6.32;;;4.55;;
13034;SDS011;6584;48.022;11.810;2023-02-11T07:14:27;5.03;;;3.80;;
13034;SDS011;6584;48.022;11.810;2023-02-11T07:16:53;4.45;;;3.17;;
13034;SDS011;6584;48.022;11.810;2023-02-11T07:19:18;4.60;;;3.42;;
13034;SDS011;6584;48.022;11.810;2023-02-11T07:21:44;4.45;;;3.20;;
13034;SDS011;6584;48.022;11.810;2023-02-11T07:24:09;4.57;;;3.10;;
13034;SDS011;6584;48.022;11.810;2023-02-11T07:26:36;5.22;;;3.90;;
13034;SDS011;6584;48.022;11.810;2023-02-11T07:29:02;6.00;;;4.60;;
13034;SDS011;6584;48.022;11.810;2023-02-11T07:31:28;6.45;;;4.95;;
13034;SDS011;6584;48.022;11.810;2023-02-11T07:33:55;5.80;;;4.57;;
13034;SDS011;6584;48.022;11.810;2023-02-11T07:36:24;5.60;;;3.65;;
13034;SDS011;6584;48.022;11.810;2023-02-11T07:38:50;5.28;;;3.45;;
13034;SDS011;6584;48.022;11.810;2023-02-11T07:41:18;6.90;;;4.50;;
13034;SDS011;6584;48.022;11.810;2023-02-11T07:43:46;8.15;;;5.25;;
13034;SDS011;6584;48.022;11.810;2023-02-11T07:46:16;12.40;;;8.18;;
13034;SDS011;6584;48.022;11.810;2023-02-11T07:48:44;5.10;;;3.83;;
13034;SDS011;6584;48.022;11.810;2023-02-11T07:51:11;7.35;;;4.88;;
13034;SDS011;6584;48.022;11.810;2023-02-11T07:53:37;5.35;;;3.92;;
13034;SDS011;6584;48.022;11.810;2023-02-11T07:56:03;5.80;;;4.03;;
13034;SDS011;6584;48.022;11.810;2023-02-11T07:58:30;7.00;;;4.45;;
13034;SDS011;6584;48.022;11.810;2023-02-11T08:01:03;6.65;;;4.05;;
13034;SDS011;6584;48.022;11.810;2023-02-11T08:03:30;6.43;;;4.00;;
13034;SDS011;6584;48.022;11.810;2023-02-11T08:05:56;8.25;;;4.10;;
13034;SDS011;6584;48.022;11.810;2023-02-11T08:08:22;7.43;;;4.20;;
13034;SDS011;6584;48.022;11.810;2023-02-11T08:10:51;9.15;;;3.72;;
13034;SDS011;6584;48.022;11.810;2023-02-11T08:13:16;5.47;;;4.22;;
13034;SDS011;6584;48.022;11.810;2023-02-11T08:15:42;8.88;;;5.13;;
13034;SDS011;6584;48.022;11.810;2023-02-11T08:18:08;7.13;;;4.47;;
13034;SDS011;6584;48.022;11.810;2023-02-11T08:20:33;6.80;;;4.40;;
13034;SDS011;6584;48.022;11.810;2023-02-11T08:22:59;7.78;;;4.45;;
13034;SDS011;6584;48.022;11.810;2023-02-11T08:25:26;7.40;;;4.68;;
13034;SDS011;6584;48.022;11.810;2023-02-11T08:27:51;7.03;;;5.07;;
13034;SDS011;6584;48.022;11.810;2023-02-11T08:30:17;7.43;;;5.43;;
13034;SDS011;6584;48.022;11.810;2023-02-11T08:32:42;9.57;;;5.38;;
13034;SDS011;6584;48.022;11.810;2023-02-11T08:35:08;13.93;;;5.72;;
13034;SDS011;6584;48.022;11.810;2023-02-11T08:37:36;8.60;;;5.53;;
13034;SDS011;6584;48.022;11.810;2023-02-11T08:40:02;7.30;;;5.63;;
13034;SDS011;6584;48.022;11.810;2023-02-11T08:42:29;8.98;;;5.60;;
13034;SDS011;6584;48.022;11.810;2023-02-11T08:44:54;8.65;;;5.93;;
13034;SDS011;6584;48.022;11.810;2023-02-11T08:47:20;8.68;;;6.57;;
13034;SDS011;6584;48.022;11.810;2023-02-11T08:49:45;11.13;;;8.05;;
13034;SDS011;6584;48.022;11.810;2023-02-11T08:52:11;13.02;;;8.05;;
13034;SDS011;6584;48.022;11.810;2023-02-11T08:54:36;10.40;;;6.25;;
13034;SDS011;6584;48.022;11.810;2023-02-11T08:57:02;9.38;;;6.45;;
13034;SDS011;6584;48.022;11.810;2023-02-11T08:59:29;9.52;;;6.55;;
13034;SDS011;6584;48.022;11.810;2023-02-11T09:01:54;8.40;;;5.65;;
13034;SDS011;6584;48.022;11.810;2023-02-11T09:04:20;15.10;;;6.63;;
13034;SDS011;6584;48.022;11.810;2023-02-11T09:06:46;9.93;;;5.95;;
13034;SDS011;6584;48.022;11.810;2023-02-11T09:09:12;7.60;;;5.28;;
13034;SDS011;6584;48.022;11.810;2023-02-11T09:11:39;9.73;;;5.85;;
13034;SDS011;6584;48.022;11.810;2023-02-11T09:14:05;10.15;;;5.88;;
13034;SDS011;6584;48.022;11.810;2023-02-11T09:16:32;6.32;;;4.88;;
13034;SDS011;6584;48.022;11.810;2023-02-11T09:19:00;6.45;;;4.88;;
13034;SDS011;6584;48.022;11.810;2023-02-11T09:21:27;7.88;;;5.88;;
13034;SDS011;6584;48.022;11.810;2023-02-11T09:23:53;8.73;;;5.20;;
13034;SDS011;6584;48.022;11.810;2023-02-11T09:26:20;6.03;;;4.63;;
13034;SDS011;6584;48.022;11.810;2023-02-11T09:28:47;5.95;;;4.63;;
13034;SDS011;6584;48.022;11.810;2023-02-11T09:31:14;7.13;;;5.13;;
13034;SDS011;6584;48.022;11.810;2023-02-11T09:33:43;5.63;;;4.10;;
13034;SDS011;6584;48.022;11.810;2023-02-11T09:36:15;6.70;;;4.97;;
13034;SDS011;6584;48.022;11.810;2023-02-11T09:38:45;9.45;;;5.20;;
13034;SDS011;6584;48.022;11.810;2023-02-11T09:41:16;8.13;;;5.13;;
13034;SDS011;6584;48.022;11.810;2023-02-11T09:43:47;6.35;;;4.60;;
13034;SDS011;6584;48.022;11.810;2023-02-11T09:46:17;6.68;;;4.78;;
13034;SDS011;6584;48.022;11.810;2023-02-11T09:48:46;7.15;;;4.47;;
13034;SDS011;6584;48.022;11.810;2023-02-11T09:51:20;4.78;;;3.88;;
13034;SDS011;6584;48.022;11.810;2023-02-11T09:53:59;5.85;;;3.80;;
13034;SDS011;6584;48.022;11.810;2023-02-11T09:56:29;7.70;;;3.63;;
13034;SDS011;6584;48.022;11.810;2023-02-11T09:58:55;4.57;;;3.67;;
13034;SDS011;6584;48.022;11.810;2023-02-11T10:07:35;4.75;;;3.30;;
13034;SDS011;6584;48.022;11.810;2023-02-11T10:10:10;5.80;;;3.50;;
13034;SDS011;6584;48.022;11.810;2023-02-11T10:13:02;4.72;;;3.63;;
13034;SDS011;6584;48.022;11.810;2023-02-11T10:15:51;5.20;;;3.70;;
13034;SDS011;6584;48.022;11.810;2023-02-11T10:21:07;5.50;;;3.97;;
13034;SDS011;6584;48.022;11.810;2023-02-11T10:23:41;5.95;;;3.78;;
13034;SDS011;6584;48.022;11.810;2023-02-11T10:26:12;7.25;;;4.28;;
13034;SDS011;6584;48.022;11.810;2023-02-11T10:28:41;6.05;;;4.13;;
13034;SDS011;6584;48.022;11.810;2023-02-11T10:34:05;8.18;;;4.75;;
13034;SDS011;6584;48.022;11.810;2023-02-11T10:36:36;5.90;;;4.25;;
13034;SDS011;6584;48.022;11.810;2023-02-11T10:39:14;7.75;;;4.72;;
13034;SDS011;6584;48.022;11.810;2023-02-11T10:44:29;6.80;;;4.90;;
13034;SDS011;6584;48.022;11.810;2023-02-11T10:47:03;7.43;;;5.03;;
13034;SDS011;6584;48.022;11.810;2023-02-11T10:49:41;7.68;;;4.60;;
13034;SDS011;6584;48.022;11.810;2023-02-11T10:52:11;6.22;;;4.97;;
13034;SDS011;6584;48.022;11.810;2023-02-11T10:54:39;6.90;;;4.68;;
13034;SDS011;6584;48.022;11.810;2023-02-11T10:57:04;7.38;;;4.97;;
13034;SDS011;6584;48.022;11.810;2023-02-11T10:59:34;7.68;;;5.20;;
13034;SDS011;6584;48.022;11.810;2023-02-11T11:02:23;6.63;;;4.90;;
13034;SDS011;6584;48.022;11.810;2023-02-11T11:04:58;9.68;;;4.60;;
13034;SDS011;6584;48.022;11.810;2023-02-11T11:07:40;8.88;;;4.50;;
13034;SDS011;6584;48.022;11.810;2023-02-11T11:10:37;7.85;;;5.22;;
13034;SDS011;6584;48.022;11.810;2023-02-11T11:13:27;6.97;;;4.90;;
13034;SDS011;6584;48.022;11.810;2023-02-11T11:18:33;5.90;;;4.65;;
13034;SDS011;6584;48.022;11.810;2023-02-11T11:20:59;7.78;;;4.55;;
13034;SDS011;6584;48.022;11.810;2023-02-11T11:23:30;10.43;;;5.10;;
13034;SDS011;6584;48.022;11.810;2023-02-11T11:26:04;7.57;;;5.47;;
13034;SDS011;6584;48.022;11.810;2023-02-11T11:28:32;8.07;;;5.32;;
13034;SDS011;6584;48.022;11.810;2023-02-11T11:31:13;9.57;;;4.97;;
13034;SDS011;6584;48.022;11.810;2023-02-11T11:33:45;6.75;;;4.40;;
13034;SDS011;6584;48.022;11.810;2023-02-11T11:36:16;6.78;;;4.85;;
13034;SDS011;6584;48.022;11.810;2023-02-11T11:38:54;11.27;;;5.07;;
13034;SDS011;6584;48.022;11.810;2023-02-11T11:41:24;7.85;;;4.80;;
13034;SDS011;6584;48.022;11.810;2023-02-11T11:43:53;6.32;;;4.43;;
13034;SDS011;6584;48.022;11.810;2023-02-11T11:46:27;8.43;;;4.70;;
13034;SDS011;6584;48.022;11.810;2023-02-11T11:49:03;5.00;;;3.90;;
13034;SDS011;6584;48.022;11.810;2023-02-11T11:54:29;5.28;;;4.00;;
13034;SDS011;6584;48.022;11.810;2023-02-11T11:57:01;6.35;;;4.13;;
13034;SDS011;6584;48.022;11.810;2023-02-11T11:59:36;6.65;;;4.18;;
13034;SDS011;6584;48.022;11.810;2023-02-11T12:17:08;4.25;;;2.90;;
13034;SDS011;6584;48.022;11.810;2023-02-11T12:19:30;6.82;;;3.13;;
13034;SDS011;6584;48.022;11.810;2023-02-11T12:22:17;6.63;;;3.38;;
13034;SDS011;6584;48.022;11.810;2023-02-11T12:25:26;7.47;;;4.32;;
13034;SDS011;6584;48.022;11.810;2023-02-11T12:27:55;7.93;;;5.75;;
13034;SDS011;6584;48.022;11.810;2023-02-11T12:33:40;7.10;;;4.63;;
13034;SDS011;6584;48.022;11.810;2023-02-11T12:36:26;9.30;;;6.22;;
13034;SDS011;6584;48.022;11.810;2023-02-11T12:55:34;5.18;;;4.07;;
13034;SDS011;6584;48.022;11.810;2023-02-11T12:58:04;6.03;;;4.07;;
13034;SDS011;6584;48.022;11.810;2023-02-11T13:00:39;8.05;;;4.30;;
13034;SDS011;6584;48.022;11.810;2023-02-11T13:03:11;6.97;;;4.40;;
13034;SDS011;6584;48.022;11.810;2023-02-11T13:05:44;6.53;;;4.03;;
13034;SDS011;6584;48.022;11.810;2023-02-11T13:08:32;11.05;;;4.35;;
13034;SDS011;6584;48.022;11.810;2023-02-11T13:11:03;5.60;;;4.22;;
13034;SDS011;6584;48.022;11.810;2023-02-11T13:13:34;5.20;;;3.83;;
13034;SDS011;6584;48.022;11.810;2023-02-11T13:16:19;7.07;;;4.47;;
13034;SDS011;6584;48.022;11.810;2023-02-11T13:21:58;5.13;;;3.83;;
13034;SDS011;6584;48.022;11.810;2023-02-11T13:24:48;7.05;;;4.15;;
13034;SDS011;6584;48.022;11.810;2023-02-11T13:35:36;4.63;;;3.65;;
13034;SDS011;6584;48.022;11.810;2023-02-11T13:38:17;5.10;;;3.88;;
13034;SDS011;6584;48.022;11.810;2023-02-11T13:43:28;5.82;;;4.15;;
13034;SDS011;6584;48.022;11.810;2023-02-11T13:45:56;5.78;;;4.38;;
13034;SDS011;6584;48.022;11.810;2023-02-11T13:48:37;5.13;;;3.63;;
13034;SDS011;6584;48.022;11.810;2023-02-11T13:51:16;5.55;;;3.80;;
13034;SDS011;6584;48.022;11.810;2023-02-11T13:53:57;4.75;;;3.70;;
13034;SDS011;6584;48.022;11.810;2023-02-11T13:58:54;5.22;;;3.53;;
13034;SDS011;6584;48.022;11.810;2023-02-11T14:04:35;4.22;;;3.33;;
13034;SDS011;6584;48.022;11.810;2023-02-11T14:07:23;4.85;;;3.90;;
13034;SDS011;6584;48.022;11.810;2023-02-11T14:13:12;5.47;;;3.50;;
13034;SDS011;6584;48.022;11.810;2023-02-11T14:15:48;6.07;;;4.10;;
13034;SDS011;6584;48.022;11.810;2023-02-11T14:18:56;8.02;;;3.88;;
13034;SDS011;6584;48.022;11.810;2023-02-11T14:26:44;4.43;;;3.50;;
13034;SDS011;6584;48.022;11.810;2023-02-11T14:29:16;4.45;;;3.55;;
13034;SDS011;6584;48.022;11.810;2023-02-11T14:31:48;6.57;;;3.75;;
13034;SDS011;6584;48.022;11.810;2023-02-11T14:42:53;5.93;;;3.42;;
13034;SDS011;6584;48.022;11.810;2023-02-11T14:45:22;8.38;;;3.83;;
13034;SDS011;6584;48.022;11.810;2023-02-11T14:50:25;4.82;;;3.38;;
13034;SDS011;6584;48.022;11.810;2023-02-11T14:52:56;5.32;;;3.88;;
13034;SDS011;6584;48.022;11.810;2023-02-11T14:55:31;6.60;;;4.00;;
13034;SDS011;6584;48.022;11.810;2023-02-11T14:58:10;4.80;;;3.72;;
13034;SDS011;6584;48.022;11.810;2023-02-11T15:00:55;5.20;;;4.05;;
13034;SDS011;6584;48.022;11.810;2023-02-11T15:08:42;6.78;;;4.25;;
13034;SDS011;6584;48.022;11.810;2023-02-11T15:11:12;5.22;;;3.97;;
13034;SDS011;6584;48.022;11.810;2023-02-11T15:13:40;6.65;;;5.25;;
13034;SDS011;6584;48.022;11.810;2023-02-11T15:16:11;10.02;;;4.90;;
13034;SDS011;6584;48.022;11.810;2023-02-11T15:18:42;8.70;;;5.18;;
13034;SDS011;6584;48.022;11.810;2023-02-11T15:21:11;8.80;;;4.75;;
13034;SDS011;6584;48.022;11.810;2023-02-11T15:23:37;7.72;;;5.07;;
13034;SDS011;6584;48.022;11.810;2023-02-11T15:26:13;7.45;;;4.70;;
13034;SDS011;6584;48.022;11.810;2023-02-11T15:28:45;7.53;;;5.07;;
13034;SDS011;6584;48.022;11.810;2023-02-11T15:31:17;9.43;;;5.32;;
13034;SDS011;6584;48.022;11.810;2023-02-11T15:33:44;7.60;;;5.43;;
13034;SDS011;6584;48.022;11.810;2023-02-11T15:36:11;8.10;;;5.15;;
13034;SDS011;6584;48.022;11.810;2023-02-11T15:38:38;9.40;;;5.50;;
13034;SDS011;6584;48.022;11.810;2023-02-11T15:41:04;10.93;;;5.35;;
13034;SDS011;6584;48.022;11.810;2023-02-11T15:46:18;9.07;;;5.72;;
13034;SDS011;6584;48.022;11.810;2023-02-11T15:51:22;11.60;;;5.47;;
13034;SDS011;6584;48.022;11.810;2023-02-11T15:53:54;8.35;;;5.70;;
13034;SDS011;6584;48.022;11.810;2023-02-11T15:56:29;9.63;;;5.53;;
13034;SDS011;6584;48.022;11.810;2023-02-11T15:59:21;8.10;;;5.22;;
13034;SDS011;6584;48.022;11.810;2023-02-11T16:01:52;7.97;;;5.72;;
13034;SDS011;6584;48.022;11.810;2023-02-11T16:04:20;8.43;;;5.32;;
13034;SDS011;6584;48.022;11.810;2023-02-11T16:06:49;10.05;;;5.70;;
13034;SDS011;6584;48.022;11.810;2023-02-11T16:19:32;12.80;;;6.70;;
13034;SDS011;6584;48.022;11.810;2023-02-11T16:21:59;14.63;;;6.60;;
13034;SDS011;6584;48.022;11.810;2023-02-11T16:24:32;8.52;;;6.40;;
13034;SDS011;6584;48.022;11.810;2023-02-11T16:27:00;9.90;;;6.43;;
13034;SDS011;6584;48.022;11.810;2023-02-11T16:29:32;10.07;;;6.85;;
13034;SDS011;6584;48.022;11.810;2023-02-11T16:32:07;14.73;;;7.68;;
13034;SDS011;6584;48.022;11.810;2023-02-11T16:34:33;13.02;;;9.20;;
13034;SDS011;6584;48.022;11.810;2023-02-11T16:37:01;14.70;;;10.95;;
13034;SDS011;6584;48.022;11.810;2023-02-11T16:39:28;18.10;;;10.30;;
13034;SDS011;6584;48.022;11.810;2023-02-11T16:41:54;16.42;;;9.43;;
13034;SDS011;6584;48.022;11.810;2023-02-11T16:44:20;12.45;;;8.35;;
13034;SDS011;6584;48.022;11.810;2023-02-11T16:46:45;12.30;;;7.50;;
13034;SDS011;6584;48.022;11.810;2023-02-11T16:49:17;13.35;;;8.00;;
13034;SDS011;6584;48.022;11.810;2023-02-11T16:51:47;12.40;;;7.90;;
13034;SDS011;6584;48.022;11.810;2023-02-11T16:54:15;12.40;;;8.00;;
13034;SDS011;6584;48.022;11.810;2023-02-11T16:56:41;9.48;;;7.45;;
13034;SDS011;6584;48.022;11.810;2023-02-11T16:59:08;10.45;;;7.78;;
13034;SDS011;6584;48.022;11.810;2023-02-11T17:01:34;12.45;;;8.30;;
13034;SDS011;6584;48.022;11.810;2023-02-11T17:04:02;10.82;;;7.35;;
13034;SDS011;6584;48.022;11.810;2023-02-11T17:06:28;12.80;;;7.60;;
13034;SDS011;6584;48.022;11.810;2023-02-11T17:08:53;12.00;;;8.20;;
13034;SDS011;6584;48.022;11.810;2023-02-11T17:11:19;11.07;;;7.40;;
13034;SDS011;6584;48.022;11.810;2023-02-11T17:13:45;11.45;;;7.65;;
13034;SDS011;6584;48.022;11.810;2023-02-11T17:16:17;14.60;;;9.52;;
13034;SDS011;6584;48.022;11.810;2023-02-11T17:18:46;13.95;;;9.73;;
13034;SDS011;6584;48.022;11.810;2023-02-11T17:21:13;15.27;;;8.80;;
13034;SDS011;6584;48.022;11.810;2023-02-11T17:23:39;11.18;;;7.80;;
13034;SDS011;6584;48.022;11.810;2023-02-11T17:26:04;10.55;;;7.25;;
13034;SDS011;6584;48.022;11.810;2023-02-11T17:28:30;10.40;;;7.30;;
13034;SDS011;6584;48.022;11.810;2023-02-11T17:30:56;12.65;;;7.53;;
13034;SDS011;6584;48.022;11.810;2023-02-11T17:33:22;17.83;;;8.18;;
13034;SDS011;6584;48.022;11.810;2023-02-11T17:35:48;12.40;;;7.28;;
13034;SDS011;6584;48.022;11.810;2023-02-11T17:38:13;12.02;;;7.13;;
13034;SDS011;6584;48.022;11.810;2023-02-11T17:40:39;10.52;;;7.38;;